createdAt,value
2018-05-27T00:01:26.907Z,20.14
2018-05-27T00:03:55.382Z,20.14
2018-05-27T00:06:24.481Z,20.12
2018-05-27T00:08:52.807Z,20.10
2018-05-27T00:11:21.514Z,20.06
2018-05-27T00:13:49.885Z,20.06
2018-05-27T00:16:18.229Z,19.99
2018-05-27T00:18:46.574Z,20.02
2018-05-27T00:21:14.925Z,20.07
2018-05-27T00:23:43.262Z,20.06
2018-05-27T00:26:11.633Z,19.93
2018-05-27T00:28:39.970Z,20.14
2018-05-27T00:31:08.346Z,20.04
2018-05-27T00:33:37.152Z,19.97
2018-05-27T00:36:05.544Z,20.15
2018-05-27T00:38:33.886Z,20.00
2018-05-27T00:41:02.299Z,19.98
2018-05-27T00:43:31.389Z,20.02
2018-05-27T00:46:00.488Z,19.81
2018-05-27T00:48:28.849Z,19.78
2018-05-27T00:50:57.236Z,19.67
2018-05-27T00:53:43.689Z,19.64
2018-05-27T00:56:12.043Z,19.57
2018-05-27T00:58:40.390Z,19.54
2018-05-27T01:01:09.517Z,19.35
2018-05-27T01:03:37.885Z,19.08
2018-05-27T01:06:06.272Z,19.27
2018-05-27T01:08:34.613Z,19.28
2018-05-27T01:11:02.916Z,19.26
2018-05-27T01:13:31.264Z,19.25
2018-05-27T01:16:00.629Z,19.03
2018-05-27T01:18:28.985Z,19.04
2018-05-27T01:20:58.142Z,19.07
2018-05-27T01:23:27.333Z,19.11
2018-05-27T01:25:55.715Z,19.07
2018-05-27T01:28:24.071Z,19.18
2018-05-27T01:30:52.450Z,18.94
2018-05-27T01:33:20.785Z,19.02
2018-05-27T01:35:49.887Z,18.95
2018-05-27T01:38:19.221Z,19.08
2018-05-27T01:40:47.588Z,19.14
2018-05-27T01:43:15.946Z,19.22
2018-05-27T01:45:45.108Z,19.16
2018-05-27T01:48:13.483Z,18.92
2018-05-27T01:50:41.832Z,18.84
2018-05-27T01:53:10.199Z,18.79
2018-05-27T01:55:38.526Z,18.76
2018-05-27T01:58:06.899Z,18.68
2018-05-27T02:00:35.849Z,18.89
2018-05-27T02:03:04.172Z,18.83
2018-05-27T02:05:32.482Z,18.82
2018-05-27T02:08:01.612Z,18.83
2018-05-27T02:10:29.995Z,18.70
2018-05-27T02:12:58.357Z,18.81
2018-05-27T02:15:26.759Z,18.67
2018-05-27T02:17:55.117Z,18.70
2018-05-27T02:20:23.485Z,18.58
2018-05-27T02:22:52.137Z,18.54
2018-05-27T02:25:20.504Z,18.55
2018-05-27T02:27:48.857Z,18.33
2018-05-27T02:30:17.213Z,18.40
2018-05-27T02:32:45.687Z,18.50
2018-05-27T02:35:14.028Z,18.44
2018-05-27T02:37:42.410Z,18.50
2018-05-27T02:40:10.782Z,18.62
2018-05-27T02:42:39.108Z,18.55
2018-05-27T02:45:07.810Z,18.47
2018-05-27T02:47:36.160Z,18.37
2018-05-27T02:50:04.502Z,18.18
2018-05-27T02:52:33.680Z,18.37
2018-05-27T02:55:02.019Z,18.35
2018-05-27T02:57:30.375Z,18.08
2018-05-27T02:59:58.745Z,18.07
2018-05-27T03:02:27.878Z,18.18
2018-05-27T03:04:56.209Z,18.16
2018-05-27T03:07:24.968Z,18.16
2018-05-27T03:09:53.312Z,18.12
2018-05-27T03:12:21.667Z,18.29
2018-05-27T03:14:50.004Z,18.13
2018-05-27T03:17:18.406Z,18.19
2018-05-27T03:19:46.722Z,18.20
2018-05-27T03:22:15.823Z,18.20
2018-05-27T03:24:44.941Z,18.02
2018-05-27T03:27:13.292Z,18.21
2018-05-27T03:29:41.939Z,18.26
2018-05-27T03:32:10.256Z,18.41
2018-05-27T03:34:38.626Z,18.41
2018-05-27T03:37:07.012Z,18.39
2018-05-27T03:39:35.486Z,18.52
2018-05-27T03:42:03.863Z,18.34
2018-05-27T03:44:32.264Z,18.29
2018-05-27T03:47:01.446Z,18.38
2018-05-27T03:49:29.881Z,18.48
2018-05-27T03:51:58.505Z,18.29
2018-05-27T03:54:26.862Z,18.04
2018-05-27T03:56:55.220Z,18.37
2018-05-27T03:59:23.668Z,18.32
2018-05-27T04:01:52.843Z,18.36
2018-05-27T04:04:53.784Z,18.53
2018-05-27T04:07:39.839Z,18.41
2018-05-27T04:10:08.534Z,18.24
2018-05-27T04:12:36.946Z,18.30
2018-05-27T04:15:05.364Z,18.01
2018-05-27T04:17:33.801Z,18.08
2018-05-27T04:20:02.199Z,18.21
2018-05-27T04:22:31.376Z,18.38
2018-05-27T04:24:59.864Z,18.28
2018-05-27T04:27:28.260Z,18.38
2018-05-27T04:29:56.667Z,18.28
2018-05-27T04:32:36.164Z,18.28
2018-05-27T04:35:04.634Z,18.42
2018-05-27T04:37:32.979Z,18.65
2018-05-27T04:40:01.405Z,18.56
2018-05-27T04:42:29.802Z,18.68
2018-05-27T04:44:58.243Z,18.65
2018-05-27T04:47:26.653Z,18.74
2018-05-27T04:49:55.043Z,18.78
2018-05-27T04:52:23.448Z,19.01
2018-05-27T04:54:51.987Z,19.19
2018-05-27T04:57:20.372Z,19.30
2018-05-27T04:59:48.697Z,19.41
2018-05-27T05:02:17.069Z,19.55
2018-05-27T05:04:45.420Z,19.47
2018-05-27T05:07:14.572Z,19.71
2018-05-27T05:09:42.975Z,19.35
2018-05-27T05:12:11.360Z,19.27
2018-05-27T05:14:39.741Z,19.23
2018-05-27T05:17:08.195Z,19.41
2018-05-27T05:19:36.541Z,19.16
2018-05-27T05:22:04.965Z,19.39
2018-05-27T05:24:33.364Z,19.49
2018-05-27T05:27:02.564Z,19.31
2018-05-27T05:29:31.760Z,19.39
2018-05-27T05:32:00.189Z,19.14
2018-05-27T05:34:28.583Z,19.24
2018-05-27T05:36:56.977Z,19.48
2018-05-27T05:39:25.882Z,19.47
2018-05-27T05:41:54.485Z,19.43
2018-05-27T05:44:23.639Z,19.32
2018-05-27T05:46:52.072Z,19.23
2018-05-27T05:49:21.343Z,19.38
2018-05-27T05:51:49.758Z,19.33
2018-05-27T05:54:18.131Z,19.44
2018-05-27T05:56:47.411Z,19.45
2018-05-27T05:59:15.758Z,19.66
2018-05-27T06:01:44.251Z,19.54
2018-05-27T06:04:12.652Z,19.47
2018-05-27T06:06:41.034Z,19.42
2018-05-27T06:09:09.474Z,19.52
2018-05-27T06:11:37.914Z,19.39
2018-05-27T06:14:07.101Z,19.30
2018-05-27T06:16:36.369Z,19.38
2018-05-27T06:19:04.784Z,19.48
2018-05-27T06:21:33.139Z,19.59
2018-05-27T06:24:02.009Z,19.91
2018-05-27T06:26:30.467Z,19.98
2018-05-27T06:28:58.902Z,20.15
2018-05-27T06:31:27.382Z,20.46
2018-05-27T06:33:55.839Z,20.50
2018-05-27T06:36:24.220Z,20.42
2018-05-27T06:38:52.599Z,20.02
2018-05-27T06:41:21.028Z,20.32
2018-05-27T06:43:49.408Z,20.31
2018-05-27T06:46:18.713Z,20.44
2018-05-27T06:48:47.115Z,20.19
2018-05-27T06:51:15.526Z,20.06
2018-05-27T06:53:44.640Z,19.93
2018-05-27T06:56:13.006Z,20.30
2018-05-27T06:58:41.359Z,20.47
2018-05-27T07:01:09.737Z,20.27
2018-05-27T07:03:38.068Z,20.38
2018-05-27T07:06:06.382Z,20.52
2018-05-27T07:08:35.135Z,20.50
2018-05-27T07:11:03.525Z,20.83
2018-05-27T07:13:32.615Z,21.20
2018-05-27T07:16:01.754Z,21.52
2018-05-27T07:18:30.116Z,21.95
2018-05-27T07:20:58.463Z,21.99
2018-05-27T07:23:27.586Z,22.31
2018-05-27T07:25:55.936Z,22.88
2018-05-27T07:28:24.309Z,23.33
2018-05-27T07:30:53.127Z,23.64
2018-05-27T07:33:21.491Z,23.57
2018-05-27T07:35:49.873Z,22.67
2018-05-27T07:38:18.243Z,22.45
2018-05-27T07:40:46.628Z,22.60
2018-05-27T07:43:15.053Z,23.05
2018-05-27T07:45:43.411Z,23.62
2018-05-27T07:48:11.778Z,23.45
2018-05-27T07:50:40.911Z,23.69
2018-05-27T07:53:09.447Z,23.96
2018-05-27T07:55:37.802Z,23.66
2018-05-27T07:58:06.147Z,24.01
2018-05-27T08:00:34.497Z,23.89
2018-05-27T08:03:02.838Z,23.81
2018-05-27T08:05:31.186Z,24.10
2018-05-27T08:07:59.571Z,24.12
2018-05-27T08:10:27.901Z,24.23
2018-05-27T08:12:56.989Z,24.41
2018-05-27T08:15:26.569Z,24.45
2018-05-27T08:17:54.944Z,24.46
2018-05-27T08:20:23.252Z,24.41
2018-05-27T08:22:51.623Z,24.39
2018-05-27T08:25:19.980Z,24.38
2018-05-27T08:27:48.312Z,24.37
2018-05-27T08:30:16.669Z,24.55
2018-05-27T08:32:45.022Z,24.50
2018-05-27T08:35:13.439Z,24.32
2018-05-27T08:37:42.112Z,24.58
2018-05-27T08:40:10.452Z,24.53
2018-05-27T08:42:38.769Z,24.70
2018-05-27T08:45:07.164Z,25.04
2018-05-27T08:47:35.504Z,25.01
2018-05-27T08:50:03.835Z,25.01
2018-05-27T08:52:32.249Z,24.84
2018-05-27T08:55:00.553Z,24.59
2018-05-27T08:57:28.963Z,24.63
2018-05-27T08:59:58.324Z,25.41
2018-05-27T09:02:26.786Z,25.84
2018-05-27T09:04:55.213Z,25.92
2018-05-27T09:07:24.399Z,25.76
2018-05-27T09:09:52.778Z,25.67
2018-05-27T09:12:21.129Z,26.40
2018-05-27T09:14:50.268Z,26.25
2018-05-27T09:17:19.384Z,26.41
2018-05-27T09:19:47.811Z,26.54
2018-05-27T09:22:16.656Z,26.77
2018-05-27T09:24:44.984Z,26.81
2018-05-27T09:27:13.470Z,26.78
2018-05-27T09:29:41.884Z,27.06
2018-05-27T09:32:10.338Z,27.47
2018-05-27T09:34:38.709Z,27.66
2018-05-27T09:37:07.165Z,27.47
2018-05-27T09:39:36.302Z,27.27
2018-05-27T09:42:04.663Z,27.60
2018-05-27T09:44:33.365Z,28.11
2018-05-27T09:47:01.814Z,28.04
2018-05-27T09:49:30.239Z,28.18
2018-05-27T09:51:59.486Z,28.11
2018-05-27T09:54:27.873Z,28.19
2018-05-27T09:56:56.377Z,28.22
2018-05-27T09:59:24.807Z,28.42
2018-05-27T10:01:53.143Z,28.52
2018-05-27T10:04:21.504Z,28.50
2018-05-27T10:06:50.099Z,28.71
2018-05-27T10:09:18.652Z,29.00
2018-05-27T10:11:47.182Z,29.41
2018-05-27T10:14:15.581Z,29.14
2018-05-27T10:16:44.057Z,28.75
2018-05-27T10:19:13.354Z,29.10
2018-05-27T10:21:42.003Z,29.15
2018-05-27T10:24:10.504Z,29.35
2018-05-27T10:26:38.884Z,29.41
2018-05-27T10:29:07.371Z,29.44
2018-05-27T10:31:35.815Z,29.56
2018-05-27T10:34:04.253Z,29.38
2018-05-27T10:36:32.621Z,29.60
2018-05-27T10:39:01.828Z,29.66
2018-05-27T10:41:30.918Z,29.70
2018-05-27T10:43:59.319Z,29.65
2018-05-27T10:46:27.778Z,29.82
2018-05-27T10:48:56.912Z,30.28
2018-05-27T10:51:25.688Z,30.41
2018-05-27T10:53:54.099Z,30.40
2018-05-27T10:56:22.422Z,30.49
2018-05-27T10:58:51.540Z,30.38
2018-05-27T11:01:19.886Z,30.57
2018-05-27T11:03:48.197Z,30.51
2018-05-27T11:06:16.572Z,30.03
2018-05-27T11:08:44.903Z,29.98
2018-05-27T11:11:13.261Z,30.03
2018-05-27T11:13:42.109Z,30.00
2018-05-27T11:16:11.201Z,30.36
2018-05-27T11:18:40.408Z,30.30
2018-05-27T11:21:08.822Z,30.46
2018-05-27T11:23:37.213Z,30.24
2018-05-27T11:26:05.536Z,29.82
2018-05-27T11:28:34.714Z,29.66
2018-05-27T11:31:03.127Z,30.29
2018-05-27T11:33:32.220Z,30.62
2018-05-27T11:36:01.647Z,30.67
2018-05-27T11:38:29.966Z,30.74
2018-05-27T11:40:58.316Z,30.63
2018-05-27T11:43:26.679Z,30.92
2018-05-27T11:45:55.015Z,30.46
2018-05-27T11:48:23.359Z,30.08
2018-05-27T11:50:51.707Z,29.99
2018-05-27T11:53:20.111Z,30.40
2018-05-27T11:55:48.465Z,29.80
2018-05-27T11:58:17.095Z,30.11
2018-05-27T12:00:45.432Z,29.73
2018-05-27T12:03:13.795Z,30.18
2018-05-27T12:05:42.921Z,30.67
2018-05-27T12:08:11.231Z,30.59
2018-05-27T12:10:39.582Z,30.89
2018-05-27T12:13:07.938Z,31.00
2018-05-27T12:15:36.276Z,30.36
2018-05-27T12:18:04.649Z,30.20
2018-05-27T12:20:33.478Z,30.38
2018-05-27T12:23:01.875Z,31.17
2018-05-27T12:25:30.192Z,31.37
2018-05-27T12:27:58.564Z,31.37
2018-05-27T12:30:26.934Z,31.67
2018-05-27T12:32:55.267Z,31.90
2018-05-27T12:35:23.650Z,31.87
2018-05-27T12:37:52.779Z,31.72
2018-05-27T12:40:21.096Z,32.00
2018-05-27T12:42:49.550Z,32.31
2018-05-27T12:45:17.918Z,32.13
2018-05-27T12:47:46.334Z,31.08
2018-05-27T12:50:14.754Z,31.15
2018-05-27T12:52:43.084Z,31.72
2018-05-27T12:55:11.432Z,31.86
2018-05-27T12:57:39.787Z,32.02
2018-05-27T13:00:08.129Z,32.14
2018-05-27T13:02:36.454Z,31.88
2018-05-27T13:05:05.349Z,31.46
2018-05-27T13:07:33.702Z,31.46
2018-05-27T13:10:02.824Z,30.70
2018-05-27T13:12:31.899Z,30.83
2018-05-27T13:15:01.024Z,31.42
2018-05-27T13:17:29.392Z,31.32
2018-05-27T13:19:57.737Z,31.69
2018-05-27T13:22:26.815Z,31.74
2018-05-27T13:24:55.153Z,31.69
2018-05-27T13:27:23.898Z,31.87
2018-05-27T13:29:52.249Z,32.20
2018-05-27T13:32:20.620Z,30.88
2018-05-27T13:34:48.979Z,30.33
2018-05-27T13:37:17.365Z,30.59
2018-05-27T13:39:45.706Z,31.22
2018-05-27T13:42:14.063Z,31.56
2018-05-27T13:44:42.382Z,31.56
2018-05-27T13:47:10.764Z,31.77
2018-05-27T13:49:39.442Z,31.74
2018-05-27T13:52:07.788Z,32.04
2018-05-27T13:54:36.129Z,32.06
2018-05-27T13:57:04.490Z,31.52
2018-05-27T13:59:32.788Z,31.52
2018-05-27T14:02:01.149Z,31.51
2018-05-27T14:04:29.476Z,31.61
2018-05-27T14:06:57.821Z,31.68
2018-05-27T14:09:26.167Z,31.73
2018-05-27T14:11:54.686Z,31.73
2018-05-27T14:14:23.047Z,32.27
2018-05-27T14:16:51.376Z,31.91
2018-05-27T14:19:19.725Z,31.80
2018-05-27T14:21:48.088Z,31.70
2018-05-27T14:24:16.452Z,31.70
2018-05-27T14:26:45.553Z,31.44
2018-05-27T14:29:13.966Z,31.43
2018-05-27T14:31:42.368Z,31.48
2018-05-27T14:34:11.106Z,31.74
2018-05-27T14:36:39.443Z,32.07
2018-05-27T14:39:08.533Z,32.21
2018-05-27T14:41:36.933Z,32.36
2018-05-27T14:44:05.248Z,32.62
2018-05-27T14:46:33.639Z,32.26
2018-05-27T14:49:02.070Z,31.95
2018-05-27T14:51:30.397Z,31.82
2018-05-27T14:53:58.734Z,32.25
2018-05-27T14:56:27.151Z,32.05
2018-05-27T14:58:55.490Z,31.86
2018-05-27T15:01:24.576Z,31.36
2018-05-27T15:03:52.951Z,31.27
2018-05-27T15:06:22.075Z,31.37
2018-05-27T15:08:50.452Z,31.62
2018-05-27T15:11:18.794Z,31.74
2018-05-27T15:13:47.108Z,31.16
2018-05-27T15:16:15.457Z,31.03
2018-05-27T15:18:44.650Z,30.97
2018-05-27T15:21:13.007Z,31.04
2018-05-27T15:23:41.424Z,30.61
2018-05-27T15:26:10.534Z,30.52
2018-05-27T15:28:39.666Z,30.60
2018-05-27T15:31:08.018Z,30.72
2018-05-27T15:33:37.185Z,30.78
2018-05-27T15:36:06.303Z,30.62
2018-05-27T15:38:35.429Z,30.40
2018-05-27T15:41:03.907Z,30.16
2018-05-27T15:43:32.253Z,30.17
2018-05-27T15:46:00.601Z,30.19
2018-05-27T15:48:28.947Z,29.98
2018-05-27T15:50:57.272Z,29.73
2018-05-27T15:53:25.591Z,29.75
2018-05-27T15:55:53.927Z,29.45
2018-05-27T15:58:22.261Z,29.69
2018-05-27T16:00:51.364Z,29.81
2018-05-27T16:03:19.899Z,29.87
2018-05-27T16:05:48.237Z,29.65
2018-05-27T16:08:16.646Z,29.46
2018-05-27T16:10:45.055Z,29.65
2018-05-27T16:13:13.418Z,29.74
2018-05-27T16:15:42.510Z,29.86
2018-05-27T16:18:10.926Z,29.72
2018-05-27T16:20:39.256Z,29.57
2018-05-27T16:23:07.595Z,29.28
2018-05-27T16:25:36.247Z,29.28
2018-05-27T16:28:05.400Z,29.31
2018-05-27T16:30:33.724Z,29.06
2018-05-27T16:33:02.895Z,29.18
2018-05-27T16:35:31.280Z,29.13
2018-05-27T16:38:00.417Z,29.02
2018-05-27T16:40:28.786Z,29.14
2018-05-27T16:42:57.126Z,28.97
2018-05-27T16:45:26.252Z,29.24
2018-05-27T16:47:54.683Z,29.09
2018-05-27T16:50:23.041Z,28.80
2018-05-27T16:52:51.407Z,28.79
2018-05-27T16:55:19.790Z,29.07
2018-05-27T16:57:48.130Z,29.02
2018-05-27T17:00:16.583Z,29.13
2018-05-27T17:02:44.984Z,28.96
2018-05-27T17:05:14.126Z,28.89
2018-05-27T17:07:42.470Z,29.01
2018-05-27T17:10:11.355Z,28.87
2018-05-27T17:12:39.777Z,28.85
2018-05-27T17:15:08.136Z,28.70
2018-05-27T17:17:36.525Z,28.63
2018-05-27T17:20:04.872Z,28.52
2018-05-27T17:22:33.341Z,28.32
2018-05-27T17:25:01.893Z,28.33
2018-05-27T17:27:30.290Z,28.15
2018-05-27T17:29:58.641Z,28.02
2018-05-27T17:32:27.119Z,28.05
2018-05-27T17:34:55.443Z,27.98
2018-05-27T17:37:23.888Z,27.88
2018-05-27T17:39:52.343Z,27.85
2018-05-27T17:42:20.660Z,27.61
2018-05-27T17:44:49.044Z,27.72
2018-05-27T17:47:17.428Z,27.72
2018-05-27T17:49:45.791Z,27.48
2018-05-27T17:52:14.100Z,27.57
2018-05-27T17:54:42.859Z,27.57
2018-05-27T17:57:11.181Z,27.59
2018-05-27T17:59:40.303Z,27.50
2018-05-27T18:02:08.697Z,27.49
2018-05-27T18:04:37.617Z,27.32
2018-05-27T18:07:06.130Z,27.47
2018-05-27T18:09:34.541Z,27.37
2018-05-27T18:12:02.864Z,27.27
2018-05-27T18:14:32.064Z,27.13
2018-05-27T18:17:01.014Z,26.97
2018-05-27T18:19:29.364Z,26.81
2018-05-27T18:21:58.561Z,26.93
2018-05-27T18:24:27.114Z,26.91
2018-05-27T18:26:55.457Z,26.90
2018-05-27T18:29:23.823Z,26.82
2018-05-27T18:31:52.294Z,26.55
2018-05-27T18:34:20.723Z,26.61
2018-05-27T18:36:49.073Z,26.65
2018-05-27T18:39:17.511Z,26.57
2018-05-27T18:41:46.652Z,26.65
2018-05-27T18:44:15.049Z,26.51
2018-05-27T18:46:43.561Z,26.42
2018-05-27T18:49:11.984Z,26.28
2018-05-27T18:51:40.420Z,26.34
2018-05-27T18:54:08.780Z,25.88
2018-05-27T18:56:37.088Z,26.07
2018-05-27T18:59:05.525Z,26.08
2018-05-27T19:01:34.740Z,25.98
2018-05-27T19:04:03.052Z,26.00
2018-05-27T19:06:32.178Z,26.08
2018-05-27T19:09:00.714Z,26.03
2018-05-27T19:11:29.067Z,25.95
2018-05-27T19:13:57.476Z,25.74
2018-05-27T19:16:25.922Z,25.75
2018-05-27T19:18:54.244Z,25.66
2018-05-27T19:21:22.641Z,25.38
2018-05-27T19:23:51.870Z,25.21
2018-05-27T19:26:20.216Z,25.16
2018-05-27T19:28:49.332Z,25.17
2018-05-27T19:31:17.692Z,25.05
2018-05-27T19:33:46.037Z,25.26
2018-05-27T19:36:15.144Z,25.18
2018-05-27T19:38:43.511Z,25.04
2018-05-27T19:41:11.904Z,25.17
2018-05-27T19:43:40.384Z,24.93
2018-05-27T19:46:08.847Z,24.93
2018-05-27T19:48:37.216Z,24.96
2018-05-27T19:51:05.588Z,24.97
2018-05-27T19:53:33.981Z,25.03
2018-05-27T19:56:02.356Z,24.85
2018-05-27T19:58:30.730Z,24.93
2018-05-27T20:00:59.139Z,24.83
2018-05-27T20:03:27.496Z,24.89
2018-05-27T20:08:55.607Z,24.84
2018-05-27T20:11:24.245Z,24.78
2018-05-27T20:13:52.621Z,24.67
2018-05-27T20:16:20.958Z,24.74
2018-05-27T20:18:50.295Z,24.73
2018-05-27T20:21:18.634Z,24.86
2018-05-27T20:23:47.011Z,24.64
2018-05-27T20:26:15.836Z,24.77
2018-05-27T20:28:44.185Z,24.64
2018-05-27T20:31:12.726Z,24.61
2018-05-27T20:33:41.162Z,24.73
2018-05-27T20:36:09.513Z,24.68
2018-05-27T20:38:37.837Z,24.70
2018-05-27T20:41:06.999Z,24.75
2018-05-27T20:43:35.339Z,24.73
2018-05-27T20:46:03.722Z,24.71
2018-05-27T20:48:32.579Z,24.56
2018-05-27T20:51:00.923Z,24.33
2018-05-27T20:53:29.307Z,24.42
2018-05-27T20:55:57.720Z,24.13
2018-05-27T20:58:26.057Z,24.31
2018-05-27T21:00:54.412Z,24.37
2018-05-27T21:03:22.777Z,24.29
2018-05-27T21:05:51.136Z,24.13
2018-05-27T21:08:19.471Z,24.29
2018-05-27T21:10:47.941Z,24.18
2018-05-27T21:13:16.381Z,24.39
2018-05-27T21:15:44.805Z,24.49
2018-05-27T21:18:13.159Z,24.48
2018-05-27T21:20:41.539Z,24.67
2018-05-27T21:23:09.878Z,24.24
2018-05-27T21:25:38.244Z,23.79
2018-05-27T21:28:07.376Z,23.66
2018-05-27T21:30:35.759Z,23.69
2018-05-27T21:33:04.320Z,23.82
2018-05-27T21:35:33.429Z,23.52
2018-05-27T21:38:01.767Z,23.56
2018-05-27T21:40:30.118Z,23.42
2018-05-27T21:42:58.516Z,23.25
2018-05-27T21:45:27.001Z,23.28
2018-05-27T21:47:55.416Z,23.28
2018-05-27T21:50:24.509Z,23.36
2018-05-27T21:52:53.594Z,23.47
2018-05-27T21:55:23.015Z,23.38
2018-05-27T21:57:51.382Z,23.40
2018-05-27T22:00:19.781Z,23.46
2018-05-27T22:02:48.139Z,23.43
2018-05-27T22:05:17.255Z,23.49
2018-05-27T22:07:45.576Z,23.60
2018-05-27T22:10:13.975Z,23.50
2018-05-27T22:12:42.308Z,23.38
2018-05-27T22:15:10.664Z,23.40
2018-05-27T22:17:40.159Z,23.52
2018-05-27T22:20:09.369Z,23.66
2018-05-27T22:22:37.757Z,23.86
2018-05-27T22:25:06.292Z,23.80
2018-05-27T22:27:34.650Z,23.42
2018-05-27T22:30:03.245Z,23.41
2018-05-27T22:32:31.710Z,23.29
2018-05-27T22:35:00.303Z,23.28
2018-05-27T22:37:28.716Z,23.22
2018-05-27T22:40:04.735Z,23.27
2018-05-27T22:42:33.089Z,23.31
2018-05-27T22:45:01.804Z,23.43
2018-05-27T22:47:30.302Z,23.11
2018-05-27T22:49:58.843Z,22.97
2018-05-27T22:52:27.297Z,23.03
2018-05-27T22:54:56.489Z,22.97
2018-05-27T22:57:25.696Z,23.01
2018-05-27T22:59:54.072Z,22.68
2018-05-27T23:02:23.277Z,22.64
2018-05-27T23:04:51.940Z,22.68
2018-05-27T23:07:20.434Z,22.59
2018-05-27T23:09:48.864Z,22.73
2018-05-27T23:12:17.296Z,22.82
2018-05-27T23:14:46.471Z,22.45
2018-05-27T23:17:14.841Z,22.73
2018-05-27T23:19:43.344Z,22.80
2018-05-27T23:22:11.838Z,22.88
2018-05-27T23:24:41.159Z,23.14
2018-05-27T23:27:10.313Z,23.30
2018-05-27T23:29:38.718Z,23.16
2018-05-27T23:32:07.873Z,22.93
2018-05-27T23:34:36.198Z,22.62
2018-05-27T23:37:05.327Z,22.67
2018-05-27T23:39:33.773Z,22.29
2018-05-27T23:42:02.171Z,22.62
2018-05-27T23:44:30.572Z,22.46
2018-05-27T23:46:59.227Z,22.55
2018-05-27T23:49:27.563Z,22.55
2018-05-27T23:51:55.921Z,22.48
2018-05-27T23:54:24.286Z,22.40
2018-05-27T23:56:52.616Z,22.30
2018-05-27T23:59:20.993Z,22.43
